• Join FlightAware (Why Join?)
  • Login
  • US Flag 
08:40AM EDT


 

Airport Tracker/Info


-or-


 

Live Flight TrackerFlight Track Log ✈ SWA771 ✈ 04-May-2013 ✈ KDEN - KPHX

Flight Track Log - Related Links

Times and Time Zones

All times are in EDT time to prevent confusion due to time zone crossing. See the SWA771 flight status page for this flight to view local times or setup timezone preferences in your user account.

Time Position Orientation Groundspeed Altitude Reporting Facility
EDT Latitude Longitude Course Direction KTS MPH feet Rate Location/Type
09:09PM 39.8000 -104.6667 210° Southwest 185 213 7,100  Level Denver TRACON
09:10PM 39.7333 -104.6833 191° South 255 293 9,300 2,280 Climbing Denver TRACON
09:11PM 39.6667 -104.7333 210° Southwest 311 358 11,700 3,000 Climbing Denver TRACON
09:13PM 39.5736 -104.7950 207° Southwest 341 392 15,700 2,880 Climbing Denver Center
09:14PM 39.5014 -104.8397 206° Southwest 370 426 17,800 3,060 Climbing Denver Center
09:15PM 39.5082 -104.4814 210° Southwest  Level FlightAware Approximate
09:15PM 39.3817 -104.9131 205° Southwest 391 450 22,000  Level Denver Center
09:16PM 39.3019 -104.9622 206° Southwest 399 459 24,200 2,040 Climbing Denver Center
09:17PM 39.1806 -105.0378 206° Southwest 418 481 26,200 1,980 Climbing Denver Center
09:18PM 39.0753 -105.1036 206° Southwest 415 478 28,300 1,920 Climbing Denver Center
09:19PM 38.9644 -105.1744 206° Southwest 434 499 30,200 2,460 Climbing Denver Center
09:20PM 38.8356 -105.2578 207° Southwest 440 506 33,400 2,700 Climbing Denver Center
09:21PM 38.7306 -105.3236 206° Southwest 420 483 35,800 1,800 Climbing Denver Center
09:22PM 38.6264 -105.3906 207° Southwest 415 478 37,100 1,080 Climbing Denver Center
09:23PM 38.5189 -105.4581 206° Southwest 424 488 38,100 1,020 Climbing Denver Center
09:24PM 38.4106 -105.5278 207° Southwest 431 496 39,200 900 Climbing Denver Center
09:25PM 38.3031 -105.5947 206° Southwest 435 501 40,000 360 Climbing Denver Center
09:26PM 38.1983 -105.6597 206° Southwest 438 504 40,000  Level Denver Center
09:27PM 38.0756 -105.7378 207° Southwest 440 506 40,000  Level Denver Center
09:28PM 37.9800 -105.8178 213° Southwest 431 496 40,000  Level Denver Center
09:29PM 37.8867 -105.9367 225° Southwest 427 491 40,000  Level Denver Center
09:30PM 37.8064 -106.0383 225° Southwest 427 491 40,000  Level Denver Center
09:31PM 37.7003 -106.1722 225° Southwest 423 487 40,000  Level Denver Center
09:32PM 37.6142 -106.2814 225° Southwest 420 483 40,000  Level Denver Center
09:33PM 37.5353 -106.3800 225° Southwest 418 481 40,000  Level Denver Center
09:34PM 37.4569 -106.4775 225° Southwest 414 476 40,000  Level Denver Center
09:35PM 37.3669 -106.5900 225° Southwest 411 473 40,000  Level Denver Center
09:36PM 37.2797 -106.7014 225° Southwest 401 461 40,000  Level Denver Center
09:37PM 37.1906 -106.8106 224° Southwest 400 460 40,000  Level Denver Center
09:39PM 37.1147 -106.9067 225° Southwest 403 464 40,000  Level Denver Center
09:40PM 37.0258 -107.0164 225° Southwest 403 464 40,000  Level Denver Center
09:41PM 36.9494 -107.1103 225° Southwest 402 463 40,000  Level Denver Center
09:42PM 36.8711 -107.2058 224° Southwest 408 470 40,000  Level Denver Center
09:43PM 36.7817 -107.3164 225° Southwest 408 470 40,000  Level Denver Center
09:44PM 36.7031 -107.4125 224° Southwest 411 473 40,000  Level Denver Center
09:45PM 36.6108 -107.5242 224° Southwest 414 476 40,000  Level Denver Center
09:46PM 36.5319 -107.6200 224° Southwest 412 474 40,000  Level Denver Center
09:47PM 36.4533 -107.7147 224° Southwest 411 473 40,000  Level Denver Center
09:48PM 36.3608 -107.8267 224° Southwest 413 475 40,000  Level Denver Center
09:49PM 36.2822 -107.9203 224° Southwest 411 473 40,000  Level Denver Center
09:50PM 36.2042 -108.0147 224° Southwest 409 471 40,000  Level Denver Center
09:51PM 36.1125 -108.1236 224° Southwest 408 470 40,000  Level Denver Center
09:52PM 36.0192 -108.2350 224° Southwest 413 475 40,000  Level Denver Center
09:52PM 35.9922 -108.2675 224° Southwest 414 476 40,000  Level Albuquerque Center
09:53PM 35.9108 -108.3639 224° Southwest 418 481 40,000  Level Albuquerque Center
09:54PM 35.8178 -108.4747 224° Southwest 416 479 40,000  Level Albuquerque Center
09:55PM 35.7381 -108.5681 224° Southwest 412 474 40,000  Level Albuquerque Center
09:56PM 35.6636 -108.6669 227° Southwest 408 470 40,000 -120 Level Albuquerque Center
09:57PM 35.5742 -108.7814 226° Southwest 412 474 39,800 -600 Descending Albuquerque Center
09:58PM 35.4956 -108.8792 225° Southwest 416 479 38,800 -960 Descending Albuquerque Center
09:59PM 35.4183 -108.9769 226° Southwest 416 479 37,900 -960 Descending Albuquerque Center
10:00PM 35.3306 -109.0886 226° Southwest 410 472 36,900 -1,020 Descending Albuquerque Center
10:01PM 35.2533 -109.1853 226° Southwest 412 474 35,900 -480 Descending Albuquerque Center
10:02PM 35.1772 -109.2786 225° Southwest 408 470 36,000  Climbing Albuquerque Center
10:03PM 35.0892 -109.3903 226° Southwest 407 468 36,000  Level Albuquerque Center
10:04PM 35.0106 -109.4831 224° Southwest 409 471 36,000  Level Albuquerque Center
10:05PM 34.9336 -109.5764 225° Southwest 407 468 36,000  Level Albuquerque Center
10:06PM 34.8439 -109.6878 226° Southwest 410 472 36,000  Level Albuquerque Center
10:07PM 34.7675 -109.7822 225° Southwest 411 473 36,000  Level Albuquerque Center
10:08PM 34.6936 -109.8794 227° Southwest 409 471 36,000  Level Albuquerque Center
10:09PM 34.6292 -110.0108 239° Southwest 404 465 36,000  Level Albuquerque Center
10:10PM 34.5728 -110.1236 239° Southwest 406 467 36,000  Level Albuquerque Center
10:11PM 34.5125 -110.2261 235° Southwest 396 456 36,000 -780 Level Albuquerque Center
10:13PM 34.4456 -110.3550 238° Southwest 400 460 34,500 -1,740 Descending Albuquerque Center
10:14PM 34.4000 -110.4500 240° Southwest 398 458 32,500 -2,100 Descending Albuquerque Center
10:15PM 34.3433 -110.5581 238° Southwest 386 444 30,300 -2,220 Descending Albuquerque Center
10:16PM 34.2875 -110.6600 236° Southwest 368 423 28,100 -2,400 Descending Albuquerque Center
10:17PM 34.2169 -110.7806 235° Southwest 366 421 25,500 -2,400 Descending Albuquerque Center
10:18PM 34.1625 -110.8858 238° Southwest 369 425 23,300 -2,220 Descending Albuquerque Center
10:19PM 34.1078 -110.9858 237° Southwest 363 418 21,100 -2,100 Descending Albuquerque Center
10:20PM 34.0564 -111.0817 237° Southwest 348 400 19,100 -2,160 Descending Albuquerque Center
10:21PM 34.0067 -111.1742 237° Southwest 335 386 16,800 -2,100 Descending Albuquerque Center
10:22PM 33.9583 -111.2636 237° Southwest 321 369 14,900 -1,920 Descending Albuquerque Center
10:23PM 33.9108 -111.3511 237° Southwest 313 360 12,900 -1,620 Descending Albuquerque Center
10:24PM 33.8592 -111.4261 230° Southwest 291 335 11,700 -960 Descending Albuquerque Center
10:25PM 33.7958 -111.4781 214° Southwest 276 318 11,000 -900 Descending Albuquerque Center
10:26PM 33.7358 -111.5300 216° Southwest 266 306 10,000 -1,080 Descending Albuquerque Center
10:27PM 33.6794 -111.5783 216° Southwest 252 290 8,900 -900 Descending Albuquerque Center
10:28PM 33.6261 -111.6242 216° Southwest 234 269 8,200 -960 Descending Albuquerque Center
10:29PM 33.5806 -111.6736 222° Southwest 224 258 7,000 -1,440 Descending Albuquerque Center
10:30PM 33.5383 -111.7369 231° Southwest 240 276 5,400 -1,500 Descending Albuquerque Center
10:31PM 33.4942 -111.8011 230° Southwest 248 285 4,000 -840 Descending Albuquerque Center
10:32PM 33.4564 -111.8561 231° Southwest 202 232 3,700 -720 Descending Albuquerque Center
10:33PM 33.4317 -111.9003 236° Southwest 152 175 2,600 -960 Descending Albuquerque Center
10:34PM 33.4314 -111.9458 270° West 137 158 1,800 -780 Descending Albuquerque Center
10:35PM 33.4308 -111.9925 269° West 125 144 1,100 -720 Descending Albuquerque Center
10:37PM 33.4343 -112.0116 270° West  Level Estimated